sensor_id;sensor_type;location;lat;lon;timestamp;temperature;humidity
27559;DHT22;15002;52.028;5.670;2024-03-06T00:00:55;10.50;99.90
27559;DHT22;15002;52.028;5.670;2024-03-06T00:03:21;10.50;99.90
27559;DHT22;15002;52.028;5.670;2024-03-06T00:05:47;10.20;99.90
27559;DHT22;15002;52.028;5.670;2024-03-06T00:08:13;10.00;99.90
27559;DHT22;15002;52.028;5.670;2024-03-06T00:10:41;10.00;99.90
27559;DHT22;15002;52.028;5.670;2024-03-06T00:13:07;10.20;99.90
27559;DHT22;15002;52.028;5.670;2024-03-06T00:15:33;10.00;99.90
27559;DHT22;15002;52.028;5.670;2024-03-06T00:17:59;10.10;99.90
27559;DHT22;15002;52.028;5.670;2024-03-06T00:20:25;10.00;99.90
27559;DHT22;15002;52.028;5.670;2024-03-06T00:22:51;10.10;99.90
27559;DHT22;15002;52.028;5.670;2024-03-06T00:25:17;10.30;99.90
27559;DHT22;15002;52.028;5.670;2024-03-06T00:27:42;10.30;99.90
27559;DHT22;15002;52.028;5.670;2024-03-06T00:30:08;10.20;99.90
27559;DHT22;15002;52.028;5.670;2024-03-06T00:32:34;10.20;99.90
27559;DHT22;15002;52.028;5.670;2024-03-06T00:34:59;10.10;99.90
27559;DHT22;15002;52.028;5.670;2024-03-06T00:37:25;10.00;99.90
27559;DHT22;15002;52.028;5.670;2024-03-06T00:39:51;9.90;99.90
27559;DHT22;15002;52.028;5.670;2024-03-06T00:42:16;9.80;99.90
27559;DHT22;15002;52.028;5.670;2024-03-06T00:44:42;9.80;99.90
27559;DHT22;15002;52.028;5.670;2024-03-06T00:47:07;9.90;99.90
27559;DHT22;15002;52.028;5.670;2024-03-06T00:49:33;9.80;99.90
27559;DHT22;15002;52.028;5.670;2024-03-06T00:51:58;9.80;99.90
27559;DHT22;15002;52.028;5.670;2024-03-06T00:54:24;9.90;99.90
27559;DHT22;15002;52.028;5.670;2024-03-06T00:56:50;9.80;99.90
27559;DHT22;15002;52.028;5.670;2024-03-06T00:59:15;9.90;99.90
27559;DHT22;15002;52.028;5.670;2024-03-06T01:01:41;10.00;99.90
27559;DHT22;15002;52.028;5.670;2024-03-06T01:04:07;10.00;99.90
27559;DHT22;15002;52.028;5.670;2024-03-06T01:06:32;10.10;99.90
27559;DHT22;15002;52.028;5.670;2024-03-06T01:08:58;10.00;99.90
27559;DHT22;15002;52.028;5.670;2024-03-06T01:11:24;10.10;99.90
27559;DHT22;15002;52.028;5.670;2024-03-06T01:13:52;10.00;99.90
27559;DHT22;15002;52.028;5.670;2024-03-06T01:16:17;9.90;99.90
27559;DHT22;15002;52.028;5.670;2024-03-06T01:18:43;10.00;99.90
27559;DHT22;15002;52.028;5.670;2024-03-06T01:21:09;10.10;99.90
27559;DHT22;15002;52.028;5.670;2024-03-06T01:23:35;10.40;99.90
27559;DHT22;15002;52.028;5.670;2024-03-06T01:26:01;10.50;99.90
27559;DHT22;15002;52.028;5.670;2024-03-06T01:28:26;10.40;99.90
27559;DHT22;15002;52.028;5.670;2024-03-06T01:30:52;10.50;99.90
27559;DHT22;15002;52.028;5.670;2024-03-06T01:33:18;10.50;99.90
27559;DHT22;15002;52.028;5.670;2024-03-06T01:35:43;10.40;99.90
27559;DHT22;15002;52.028;5.670;2024-03-06T01:38:09;10.70;99.90
27559;DHT22;15002;52.028;5.670;2024-03-06T01:40:35;10.60;99.90
27559;DHT22;15002;52.028;5.670;2024-03-06T01:43:01;10.30;99.90
27559;DHT22;15002;52.028;5.670;2024-03-06T01:45:27;10.00;99.90
27559;DHT22;15002;52.028;5.670;2024-03-06T01:47:52;9.80;99.90
27559;DHT22;15002;52.028;5.670;2024-03-06T01:50:18;9.70;99.90
27559;DHT22;15002;52.028;5.670;2024-03-06T01:52:44;9.80;99.90
27559;DHT22;15002;52.028;5.670;2024-03-06T01:55:12;9.80;99.90
27559;DHT22;15002;52.028;5.670;2024-03-06T01:57:39;9.80;99.90
27559;DHT22;15002;52.028;5.670;2024-03-06T02:00:08;9.60;99.90
27559;DHT22;15002;52.028;5.670;2024-03-06T02:02:40;9.60;99.90
27559;DHT22;15002;52.028;5.670;2024-03-06T02:05:06;9.60;99.90
27559;DHT22;15002;52.028;5.670;2024-03-06T02:07:32;9.60;99.90
27559;DHT22;15002;52.028;5.670;2024-03-06T02:09:58;9.50;99.90
27559;DHT22;15002;52.028;5.670;2024-03-06T02:12:24;9.50;99.90
27559;DHT22;15002;52.028;5.670;2024-03-06T02:14:50;9.50;99.90
27559;DHT22;15002;52.028;5.670;2024-03-06T02:17:15;9.40;99.90
27559;DHT22;15002;52.028;5.670;2024-03-06T02:19:42;9.30;99.90
27559;DHT22;15002;52.028;5.670;2024-03-06T02:22:10;9.40;99.90
27559;DHT22;15002;52.028;5.670;2024-03-06T02:24:36;9.70;99.90
27559;DHT22;15002;52.028;5.670;2024-03-06T02:27:02;9.80;99.90
27559;DHT22;15002;52.028;5.670;2024-03-06T02:29:28;9.80;99.90
27559;DHT22;15002;52.028;5.670;2024-03-06T02:31:54;9.70;99.90
27559;DHT22;15002;52.028;5.670;2024-03-06T02:34:19;9.50;99.90
27559;DHT22;15002;52.028;5.670;2024-03-06T02:36:46;9.40;99.90
27559;DHT22;15002;52.028;5.670;2024-03-06T02:39:11;9.40;99.90
27559;DHT22;15002;52.028;5.670;2024-03-06T02:41:37;9.20;99.90
27559;DHT22;15002;52.028;5.670;2024-03-06T02:44:03;9.20;99.90
27559;DHT22;15002;52.028;5.670;2024-03-06T02:46:29;9.20;99.90
27559;DHT22;15002;52.028;5.670;2024-03-06T02:48:54;9.20;99.90
27559;DHT22;15002;52.028;5.670;2024-03-06T02:51:21;9.20;99.90
27559;DHT22;15002;52.028;5.670;2024-03-06T02:53:46;9.10;99.90
27559;DHT22;15002;52.028;5.670;2024-03-06T02:56:17;9.20;99.90
27559;DHT22;15002;52.028;5.670;2024-03-06T02:58:43;9.50;99.90
27559;DHT22;15002;52.028;5.670;2024-03-06T03:01:09;9.50;99.90
27559;DHT22;15002;52.028;5.670;2024-03-06T03:03:35;9.40;99.90
27559;DHT22;15002;52.028;5.670;2024-03-06T03:06:01;9.10;99.90
27559;DHT22;15002;52.028;5.670;2024-03-06T03:08:27;9.10;99.90
27559;DHT22;15002;52.028;5.670;2024-03-06T03:10:53;9.00;99.90
27559;DHT22;15002;52.028;5.670;2024-03-06T03:13:18;8.90;99.90
27559;DHT22;15002;52.028;5.670;2024-03-06T03:15:44;8.90;99.90
27559;DHT22;15002;52.028;5.670;2024-03-06T03:18:09;8.90;99.90
27559;DHT22;15002;52.028;5.670;2024-03-06T03:20:35;8.80;99.90
27559;DHT22;15002;52.028;5.670;2024-03-06T03:23:02;8.80;99.90
27559;DHT22;15002;52.028;5.670;2024-03-06T03:25:27;9.00;99.90
27559;DHT22;15002;52.028;5.670;2024-03-06T03:27:53;8.90;99.90
27559;DHT22;15002;52.028;5.670;2024-03-06T03:30:18;8.90;99.90
27559;DHT22;15002;52.028;5.670;2024-03-06T03:32:50;8.80;99.90
27559;DHT22;15002;52.028;5.670;2024-03-06T03:35:15;8.70;99.90
27559;DHT22;15002;52.028;5.670;2024-03-06T03:37:42;8.70;99.90
27559;DHT22;15002;52.028;5.670;2024-03-06T03:40:09;8.80;99.90
27559;DHT22;15002;52.028;5.670;2024-03-06T03:42:38;8.80;99.90
27559;DHT22;15002;52.028;5.670;2024-03-06T03:45:04;8.70;99.90
27559;DHT22;15002;52.028;5.670;2024-03-06T03:47:30;8.60;99.90
27559;DHT22;15002;52.028;5.670;2024-03-06T03:49:55;8.60;99.90
27559;DHT22;15002;52.028;5.670;2024-03-06T03:52:21;8.40;99.90
27559;DHT22;15002;52.028;5.670;2024-03-06T03:54:47;8.40;99.90
27559;DHT22;15002;52.028;5.670;2024-03-06T03:57:13;8.50;99.90
27559;DHT22;15002;52.028;5.670;2024-03-06T03:59:39;8.70;99.90
27559;DHT22;15002;52.028;5.670;2024-03-06T04:02:06;8.60;99.90
27559;DHT22;15002;52.028;5.670;2024-03-06T04:04:32;8.60;99.90
27559;DHT22;15002;52.028;5.670;2024-03-06T04:06:59;8.60;99.90
27559;DHT22;15002;52.028;5.670;2024-03-06T04:09:27;8.70;99.90
27559;DHT22;15002;52.028;5.670;2024-03-06T04:11:53;8.60;99.90
27559;DHT22;15002;52.028;5.670;2024-03-06T04:14:19;8.50;99.90
27559;DHT22;15002;52.028;5.670;2024-03-06T04:16:47;8.30;99.90
27559;DHT22;15002;52.028;5.670;2024-03-06T04:19:13;8.00;99.90
27559;DHT22;15002;52.028;5.670;2024-03-06T04:21:42;7.90;99.90
27559;DHT22;15002;52.028;5.670;2024-03-06T04:24:08;7.80;99.90
27559;DHT22;15002;52.028;5.670;2024-03-06T04:26:35;7.80;99.90
27559;DHT22;15002;52.028;5.670;2024-03-06T04:29:00;7.70;99.90
27559;DHT22;15002;52.028;5.670;2024-03-06T04:31:26;8.00;99.90
27559;DHT22;15002;52.028;5.670;2024-03-06T04:33:52;8.10;99.90
27559;DHT22;15002;52.028;5.670;2024-03-06T04:36:18;8.10;99.90
27559;DHT22;15002;52.028;5.670;2024-03-06T04:38:43;7.90;99.90
27559;DHT22;15002;52.028;5.670;2024-03-06T04:41:09;7.70;99.90
27559;DHT22;15002;52.028;5.670;2024-03-06T04:43:36;7.60;99.90
27559;DHT22;15002;52.028;5.670;2024-03-06T04:46:01;7.70;99.90
27559;DHT22;15002;52.028;5.670;2024-03-06T04:48:27;7.80;99.90
27559;DHT22;15002;52.028;5.670;2024-03-06T04:50:53;7.70;99.90
27559;DHT22;15002;52.028;5.670;2024-03-06T04:53:19;7.70;99.90
27559;DHT22;15002;52.028;5.670;2024-03-06T04:55:46;7.50;99.90
27559;DHT22;15002;52.028;5.670;2024-03-06T04:58:12;7.40;99.90
27559;DHT22;15002;52.028;5.670;2024-03-06T05:00:38;7.40;99.90
27559;DHT22;15002;52.028;5.670;2024-03-06T05:03:03;7.60;99.90
27559;DHT22;15002;52.028;5.670;2024-03-06T05:05:30;7.60;99.90
27559;DHT22;15002;52.028;5.670;2024-03-06T05:07:56;7.60;99.90
27559;DHT22;15002;52.028;5.670;2024-03-06T05:10:22;7.60;99.90
27559;DHT22;15002;52.028;5.670;2024-03-06T05:12:47;7.70;99.90
27559;DHT22;15002;52.028;5.670;2024-03-06T05:15:14;7.70;99.90
27559;DHT22;15002;52.028;5.670;2024-03-06T05:17:39;7.70;99.90
27559;DHT22;15002;52.028;5.670;2024-03-06T05:20:06;7.70;99.90
27559;DHT22;15002;52.028;5.670;2024-03-06T05:22:32;7.70;99.90
27559;DHT22;15002;52.028;5.670;2024-03-06T05:24:57;7.50;99.90
27559;DHT22;15002;52.028;5.670;2024-03-06T05:27:24;7.30;99.90
27559;DHT22;15002;52.028;5.670;2024-03-06T05:29:49;7.20;99.90
27559;DHT22;15002;52.028;5.670;2024-03-06T05:32:15;7.20;99.90
27559;DHT22;15002;52.028;5.670;2024-03-06T05:34:41;7.30;99.90
27559;DHT22;15002;52.028;5.670;2024-03-06T05:37:07;7.60;99.90
27559;DHT22;15002;52.028;5.670;2024-03-06T05:39:33;7.70;99.90
27559;DHT22;15002;52.028;5.670;2024-03-06T05:42:03;7.70;99.90
27559;DHT22;15002;52.028;5.670;2024-03-06T05:44:30;7.50;99.90
27559;DHT22;15002;52.028;5.670;2024-03-06T05:47:00;7.60;99.90
27559;DHT22;15002;52.028;5.670;2024-03-06T05:49:26;7.80;99.90
27559;DHT22;15002;52.028;5.670;2024-03-06T05:51:53;7.80;99.90
27559;DHT22;15002;52.028;5.670;2024-03-06T05:54:22;7.80;99.90
27559;DHT22;15002;52.028;5.670;2024-03-06T05:56:49;7.80;99.90
27559;DHT22;15002;52.028;5.670;2024-03-06T05:59:17;8.00;99.90
27559;DHT22;15002;52.028;5.670;2024-03-06T06:01:42;7.90;99.90
27559;DHT22;15002;52.028;5.670;2024-03-06T06:04:10;7.90;99.90
27559;DHT22;15002;52.028;5.670;2024-03-06T06:06:36;8.10;99.90
27559;DHT22;15002;52.028;5.670;2024-03-06T06:09:02;8.10;99.90
27559;DHT22;15002;52.028;5.670;2024-03-06T06:11:30;8.30;99.90
27559;DHT22;15002;52.028;5.670;2024-03-06T06:13:56;8.30;99.90
27559;DHT22;15002;52.028;5.670;2024-03-06T06:16:22;8.30;99.90
27559;DHT22;15002;52.028;5.670;2024-03-06T06:18:47;8.00;99.90
27559;DHT22;15002;52.028;5.670;2024-03-06T06:21:13;7.90;99.90
27559;DHT22;15002;52.028;5.670;2024-03-06T06:23:38;7.90;99.90
27559;DHT22;15002;52.028;5.670;2024-03-06T06:26:04;8.10;99.90
27559;DHT22;15002;52.028;5.670;2024-03-06T06:28:30;8.30;99.90
27559;DHT22;15002;52.028;5.670;2024-03-06T06:30:56;8.30;99.90
27559;DHT22;15002;52.028;5.670;2024-03-06T06:33:21;8.20;99.90
27559;DHT22;15002;52.028;5.670;2024-03-06T06:35:47;8.40;99.90
27559;DHT22;15002;52.028;5.670;2024-03-06T06:38:13;8.20;99.90
27559;DHT22;15002;52.028;5.670;2024-03-06T06:40:39;8.50;99.90
27559;DHT22;15002;52.028;5.670;2024-03-06T06:43:06;8.80;99.90
27559;DHT22;15002;52.028;5.670;2024-03-06T06:45:32;8.80;99.90
27559;DHT22;15002;52.028;5.670;2024-03-06T06:47:57;8.70;99.90
27559;DHT22;15002;52.028;5.670;2024-03-06T06:50:23;9.10;99.90
27559;DHT22;15002;52.028;5.670;2024-03-06T06:52:51;9.10;99.90
27559;DHT22;15002;52.028;5.670;2024-03-06T06:55:17;9.00;99.90
27559;DHT22;15002;52.028;5.670;2024-03-06T06:57:42;9.20;99.90
27559;DHT22;15002;52.028;5.670;2024-03-06T07:00:09;9.20;99.90
27559;DHT22;15002;52.028;5.670;2024-03-06T07:02:41;9.10;99.90
27559;DHT22;15002;52.028;5.670;2024-03-06T07:05:08;9.50;99.90
27559;DHT22;15002;52.028;5.670;2024-03-06T07:07:37;9.80;99.90
27559;DHT22;15002;52.028;5.670;2024-03-06T07:10:04;10.10;99.90
27559;DHT22;15002;52.028;5.670;2024-03-06T07:12:30;10.20;99.90
27559;DHT22;15002;52.028;5.670;2024-03-06T07:14:56;10.20;99.90
27559;DHT22;15002;52.028;5.670;2024-03-06T07:17:22;10.80;99.90
27559;DHT22;15002;52.028;5.670;2024-03-06T07:19:48;11.20;99.90
27559;DHT22;15002;52.028;5.670;2024-03-06T07:22:13;11.30;99.90
27559;DHT22;15002;52.028;5.670;2024-03-06T07:24:41;11.60;99.90
27559;DHT22;15002;52.028;5.670;2024-03-06T07:27:07;11.10;99.90
27559;DHT22;15002;52.028;5.670;2024-03-06T07:29:34;10.60;99.90
27559;DHT22;15002;52.028;5.670;2024-03-06T07:32:00;10.20;99.90
27559;DHT22;15002;52.028;5.670;2024-03-06T07:34:26;10.70;99.90
27559;DHT22;15002;52.028;5.670;2024-03-06T07:36:52;10.70;99.90
27559;DHT22;15002;52.028;5.670;2024-03-06T07:39:21;10.80;99.90
27559;DHT22;15002;52.028;5.670;2024-03-06T07:41:47;10.50;99.90
27559;DHT22;15002;52.028;5.670;2024-03-06T07:44:12;10.30;99.90
27559;DHT22;15002;52.028;5.670;2024-03-06T07:46:38;10.30;99.90
27559;DHT22;15002;52.028;5.670;2024-03-06T07:49:04;10.10;99.90
27559;DHT22;15002;52.028;5.670;2024-03-06T07:51:31;10.00;99.90
27559;DHT22;15002;52.028;5.670;2024-03-06T07:53:56;9.70;99.90
27559;DHT22;15002;52.028;5.670;2024-03-06T07:56:23;9.80;99.90
27559;DHT22;15002;52.028;5.670;2024-03-06T07:58:49;9.70;99.90
27559;DHT22;15002;52.028;5.670;2024-03-06T08:01:15;10.00;99.90
27559;DHT22;15002;52.028;5.670;2024-03-06T08:03:41;9.90;99.90
27559;DHT22;15002;52.028;5.670;2024-03-06T08:06:09;9.90;99.90
27559;DHT22;15002;52.028;5.670;2024-03-06T08:08:35;9.60;99.90
27559;DHT22;15002;52.028;5.670;2024-03-06T08:11:01;9.70;99.90
27559;DHT22;15002;52.028;5.670;2024-03-06T08:13:27;9.60;99.90
27559;DHT22;15002;52.028;5.670;2024-03-06T08:15:53;9.40;99.90
27559;DHT22;15002;52.028;5.670;2024-03-06T08:18:18;9.50;99.90
27559;DHT22;15002;52.028;5.670;2024-03-06T08:20:44;9.60;99.90
27559;DHT22;15002;52.028;5.670;2024-03-06T08:23:10;9.90;99.90
27559;DHT22;15002;52.028;5.670;2024-03-06T08:25:36;9.90;99.90
27559;DHT22;15002;52.028;5.670;2024-03-06T08:28:01;9.90;99.90
27559;DHT22;15002;52.028;5.670;2024-03-06T08:30:29;10.00;99.90
27559;DHT22;15002;52.028;5.670;2024-03-06T08:32:58;9.90;99.90
27559;DHT22;15002;52.028;5.670;2024-03-06T08:35:24;9.80;99.90
27559;DHT22;15002;52.028;5.670;2024-03-06T08:37:50;10.00;99.90
27559;DHT22;15002;52.028;5.670;2024-03-06T08:40:17;10.10;99.90
27559;DHT22;15002;52.028;5.670;2024-03-06T08:42:47;10.10;99.90
27559;DHT22;15002;52.028;5.670;2024-03-06T08:45:13;10.10;99.90
27559;DHT22;15002;52.028;5.670;2024-03-06T08:47:40;10.20;99.90
27559;DHT22;15002;52.028;5.670;2024-03-06T08:50:06;10.30;99.90
27559;DHT22;15002;52.028;5.670;2024-03-06T08:52:35;10.30;99.90
27559;DHT22;15002;52.028;5.670;2024-03-06T08:55:01;10.60;99.90
27559;DHT22;15002;52.028;5.670;2024-03-06T08:57:29;10.70;99.90
27559;DHT22;15002;52.028;5.670;2024-03-06T08:59:56;10.70;99.90
27559;DHT22;15002;52.028;5.670;2024-03-06T09:02:22;10.60;99.90
27559;DHT22;15002;52.028;5.670;2024-03-06T09:04:48;10.60;99.90
27559;DHT22;15002;52.028;5.670;2024-03-06T09:07:14;10.40;99.90
27559;DHT22;15002;52.028;5.670;2024-03-06T09:09:40;10.40;99.90
27559;DHT22;15002;52.028;5.670;2024-03-06T09:12:07;10.60;99.90
27559;DHT22;15002;52.028;5.670;2024-03-06T09:14:39;10.80;99.90
27559;DHT22;15002;52.028;5.670;2024-03-06T09:17:05;11.00;99.90
27559;DHT22;15002;52.028;5.670;2024-03-06T09:19:32;10.80;99.90
27559;DHT22;15002;52.028;5.670;2024-03-06T09:21:59;10.60;99.90
27559;DHT22;15002;52.028;5.670;2024-03-06T09:24:25;10.50;99.90
27559;DHT22;15002;52.028;5.670;2024-03-06T09:26:52;10.50;99.90
27559;DHT22;15002;52.028;5.670;2024-03-06T09:29:18;10.90;99.90
27559;DHT22;15002;52.028;5.670;2024-03-06T09:31:44;11.30;99.90
27559;DHT22;15002;52.028;5.670;2024-03-06T09:34:10;11.50;99.90
27559;DHT22;15002;52.028;5.670;2024-03-06T09:36:39;11.40;99.90
27559;DHT22;15002;52.028;5.670;2024-03-06T09:39:04;11.50;99.90
27559;DHT22;15002;52.028;5.670;2024-03-06T09:41:30;11.30;99.90
27559;DHT22;15002;52.028;5.670;2024-03-06T09:43:57;11.20;99.90
27559;DHT22;15002;52.028;5.670;2024-03-06T09:46:22;11.30;99.90
27559;DHT22;15002;52.028;5.670;2024-03-06T09:48:49;11.40;99.90
27559;DHT22;15002;52.028;5.670;2024-03-06T09:51:16;11.50;99.90
27559;DHT22;15002;52.028;5.670;2024-03-06T09:53:42;11.50;99.90
27559;DHT22;15002;52.028;5.670;2024-03-06T09:56:09;11.30;99.90
27559;DHT22;15002;52.028;5.670;2024-03-06T09:58:38;10.80;99.90
27559;DHT22;15002;52.028;5.670;2024-03-06T10:01:05;10.90;99.90
27559;DHT22;15002;52.028;5.670;2024-03-06T10:03:33;11.40;99.90
27559;DHT22;15002;52.028;5.670;2024-03-06T10:05:59;11.70;99.90
27559;DHT22;15002;52.028;5.670;2024-03-06T10:08:25;12.00;99.90
27559;DHT22;15002;52.028;5.670;2024-03-06T10:10:52;12.20;99.90
27559;DHT22;15002;52.028;5.670;2024-03-06T10:13:18;12.20;99.90
27559;DHT22;15002;52.028;5.670;2024-03-06T10:16:01;12.60;99.90
27559;DHT22;15002;52.028;5.670;2024-03-06T10:18:31;12.10;99.90
27559;DHT22;15002;52.028;5.670;2024-03-06T10:20:58;12.70;99.90
27559;DHT22;15002;52.028;5.670;2024-03-06T10:23:24;12.90;99.90
27559;DHT22;15002;52.028;5.670;2024-03-06T10:25:50;13.00;99.90
27559;DHT22;15002;52.028;5.670;2024-03-06T10:28:18;12.50;99.90
27559;DHT22;15002;52.028;5.670;2024-03-06T10:30:44;12.50;99.90
27559;DHT22;15002;52.028;5.670;2024-03-06T10:33:12;12.80;99.90
27559;DHT22;15002;52.028;5.670;2024-03-06T10:35:43;12.80;99.90
27559;DHT22;15002;52.028;5.670;2024-03-06T10:38:09;12.70;99.90
27559;DHT22;15002;52.028;5.670;2024-03-06T10:40:41;12.60;99.90
27559;DHT22;15002;52.028;5.670;2024-03-06T10:43:08;12.50;99.90
27559;DHT22;15002;52.028;5.670;2024-03-06T10:45:50;12.80;99.90
27559;DHT22;15002;52.028;5.670;2024-03-06T10:48:19;12.40;99.90
27559;DHT22;15002;52.028;5.670;2024-03-06T10:50:46;12.30;99.90
27559;DHT22;15002;52.028;5.670;2024-03-06T10:53:14;12.40;99.90
27559;DHT22;15002;52.028;5.670;2024-03-06T10:55:42;12.40;99.90
27559;DHT22;15002;52.028;5.670;2024-03-06T10:58:10;12.20;99.90
27559;DHT22;15002;52.028;5.670;2024-03-06T11:00:45;12.50;99.90
27559;DHT22;15002;52.028;5.670;2024-03-06T11:03:14;12.90;99.90
27559;DHT22;15002;52.028;5.670;2024-03-06T11:05:41;13.40;99.90
27559;DHT22;15002;52.028;5.670;2024-03-06T11:08:12;13.60;99.90
27559;DHT22;15002;52.028;5.670;2024-03-06T11:10:40;14.00;99.90
27559;DHT22;15002;52.028;5.670;2024-03-06T11:13:25;13.80;99.90
27559;DHT22;15002;52.028;5.670;2024-03-06T11:15:58;13.90;99.90
27559;DHT22;15002;52.028;5.670;2024-03-06T11:24:13;14.00;99.90
27559;DHT22;15002;52.028;5.670;2024-03-06T11:26:47;13.70;99.90
27559;DHT22;15002;52.028;5.670;2024-03-06T11:29:19;13.50;99.90
27559;DHT22;15002;52.028;5.670;2024-03-06T11:32:07;13.10;99.90
27559;DHT22;15002;52.028;5.670;2024-03-06T11:34:37;13.30;99.90
27559;DHT22;15002;52.028;5.670;2024-03-06T11:37:04;13.30;99.90
27559;DHT22;15002;52.028;5.670;2024-03-06T11:39:34;13.80;99.90
27559;DHT22;15002;52.028;5.670;2024-03-06T11:42:02;13.90;99.90
27559;DHT22;15002;52.028;5.670;2024-03-06T11:44:27;13.80;99.90
27559;DHT22;15002;52.028;5.670;2024-03-06T11:46:58;14.00;99.90
27559;DHT22;15002;52.028;5.670;2024-03-06T11:49:27;13.90;99.90
27559;DHT22;15002;52.028;5.670;2024-03-06T11:51:56;13.80;99.90
27559;DHT22;15002;52.028;5.670;2024-03-06T11:54:26;13.80;99.90
27559;DHT22;15002;52.028;5.670;2024-03-06T11:56:54;13.70;99.90
27559;DHT22;15002;52.028;5.670;2024-03-06T11:59:31;13.90;99.90
27559;DHT22;15002;52.028;5.670;2024-03-06T12:02:01;13.80;99.90
27559;DHT22;15002;52.028;5.670;2024-03-06T12:04:29;13.40;99.90
27559;DHT22;15002;52.028;5.670;2024-03-06T12:06:58;13.70;99.90
27559;DHT22;15002;52.028;5.670;2024-03-06T12:09:35;13.60;99.90
27559;DHT22;15002;52.028;5.670;2024-03-06T12:12:01;14.00;99.90
27559;DHT22;15002;52.028;5.670;2024-03-06T12:14:28;14.10;99.90
27559;DHT22;15002;52.028;5.670;2024-03-06T12:16:59;14.10;99.90
27559;DHT22;15002;52.028;5.670;2024-03-06T12:19:35;14.10;99.90
27559;DHT22;15002;52.028;5.670;2024-03-06T12:22:02;14.10;99.90
27559;DHT22;15002;52.028;5.670;2024-03-06T12:24:32;14.30;99.90
27559;DHT22;15002;52.028;5.670;2024-03-06T12:27:06;14.30;99.90
27559;DHT22;15002;52.028;5.670;2024-03-06T12:29:32;14.10;99.90
27559;DHT22;15002;52.028;5.670;2024-03-06T12:32:02;14.00;99.90
27559;DHT22;15002;52.028;5.670;2024-03-06T12:34:28;14.00;99.90
27559;DHT22;15002;52.028;5.670;2024-03-06T12:36:55;14.00;99.90
27559;DHT22;15002;52.028;5.670;2024-03-06T12:39:23;14.00;99.90
27559;DHT22;15002;52.028;5.670;2024-03-06T12:41:52;13.80;99.90
27559;DHT22;15002;52.028;5.670;2024-03-06T12:44:19;13.80;99.90
27559;DHT22;15002;52.028;5.670;2024-03-06T12:46:45;13.60;99.90
27559;DHT22;15002;52.028;5.670;2024-03-06T12:49:11;14.00;99.90
27559;DHT22;15002;52.028;5.670;2024-03-06T12:51:36;13.90;99.90
27559;DHT22;15002;52.028;5.670;2024-03-06T12:54:02;13.80;99.90
27559;DHT22;15002;52.028;5.670;2024-03-06T12:56:29;13.90;99.90
27559;DHT22;15002;52.028;5.670;2024-03-06T12:58:54;14.20;99.90
27559;DHT22;15002;52.028;5.670;2024-03-06T13:01:20;14.50;99.90
27559;DHT22;15002;52.028;5.670;2024-03-06T13:03:46;14.50;99.90
27559;DHT22;15002;52.028;5.670;2024-03-06T13:06:12;14.40;99.90
27559;DHT22;15002;52.028;5.670;2024-03-06T13:08:37;14.30;99.90
27559;DHT22;15002;52.028;5.670;2024-03-06T13:11:03;14.80;99.90
27559;DHT22;15002;52.028;5.670;2024-03-06T13:13:29;14.50;99.90
27559;DHT22;15002;52.028;5.670;2024-03-06T13:15:58;14.50;99.90
27559;DHT22;15002;52.028;5.670;2024-03-06T13:18:24;14.60;99.90
27559;DHT22;15002;52.028;5.670;2024-03-06T13:20:51;14.80;99.90
27559;DHT22;15002;52.028;5.670;2024-03-06T13:23:16;15.00;99.90
27559;DHT22;15002;52.028;5.670;2024-03-06T13:25:42;14.90;99.90
27559;DHT22;15002;52.028;5.670;2024-03-06T13:28:09;14.50;99.90
27559;DHT22;15002;52.028;5.670;2024-03-06T13:30:35;14.40;99.90
27559;DHT22;15002;52.028;5.670;2024-03-06T13:33:00;14.20;99.90
27559;DHT22;15002;52.028;5.670;2024-03-06T13:35:26;14.00;99.90
27559;DHT22;15002;52.028;5.670;2024-03-06T13:37:52;13.80;99.90
27559;DHT22;15002;52.028;5.670;2024-03-06T13:40:19;14.30;99.90
27559;DHT22;15002;52.028;5.670;2024-03-06T13:42:45;14.30;99.90
27559;DHT22;15002;52.028;5.670;2024-03-06T13:45:11;14.70;99.90
27559;DHT22;15002;52.028;5.670;2024-03-06T13:47:46;14.80;99.90
27559;DHT22;15002;52.028;5.670;2024-03-06T13:50:13;14.90;99.90
27559;DHT22;15002;52.028;5.670;2024-03-06T13:52:40;14.70;99.90
27559;DHT22;15002;52.028;5.670;2024-03-06T13:55:06;14.40;99.90
27559;DHT22;15002;52.028;5.670;2024-03-06T13:57:36;14.20;99.90
27559;DHT22;15002;52.028;5.670;2024-03-06T14:00:09;14.20;99.90
27559;DHT22;15002;52.028;5.670;2024-03-06T14:02:39;14.30;99.90
27559;DHT22;15002;52.028;5.670;2024-03-06T14:05:05;14.40;99.90
27559;DHT22;15002;52.028;5.670;2024-03-06T14:07:31;14.80;99.90
27559;DHT22;15002;52.028;5.670;2024-03-06T14:09:58;14.90;99.90
27559;DHT22;15002;52.028;5.670;2024-03-06T14:12:23;15.10;99.90
27559;DHT22;15002;52.028;5.670;2024-03-06T14:14:49;15.20;99.90
27559;DHT22;15002;52.028;5.670;2024-03-06T14:17:15;15.20;99.90
27559;DHT22;15002;52.028;5.670;2024-03-06T14:19:40;15.40;99.90
27559;DHT22;15002;52.028;5.670;2024-03-06T14:22:07;15.10;99.90
27559;DHT22;15002;52.028;5.670;2024-03-06T14:24:33;14.90;99.90
27559;DHT22;15002;52.028;5.670;2024-03-06T14:26:59;15.20;99.90
27559;DHT22;15002;52.028;5.670;2024-03-06T14:29:24;14.90;99.90
27559;DHT22;15002;52.028;5.670;2024-03-06T14:31:52;15.10;99.90
27559;DHT22;15002;52.028;5.670;2024-03-06T14:34:18;15.00;99.90
27559;DHT22;15002;52.028;5.670;2024-03-06T14:36:45;15.30;99.90
27559;DHT22;15002;52.028;5.670;2024-03-06T14:39:11;14.90;99.90
27559;DHT22;15002;52.028;5.670;2024-03-06T14:41:39;14.80;99.90
27559;DHT22;15002;52.028;5.670;2024-03-06T14:44:04;15.20;99.90
27559;DHT22;15002;52.028;5.670;2024-03-06T14:46:30;15.00;99.90
27559;DHT22;15002;52.028;5.670;2024-03-06T14:48:56;14.70;99.90
27559;DHT22;15002;52.028;5.670;2024-03-06T14:51:22;14.60;99.90
27559;DHT22;15002;52.028;5.670;2024-03-06T14:53:47;14.90;99.90
27559;DHT22;15002;52.028;5.670;2024-03-06T14:56:13;15.10;99.90
27559;DHT22;15002;52.028;5.670;2024-03-06T14:58:39;15.00;99.90
27559;DHT22;15002;52.028;5.670;2024-03-06T15:01:05;15.00;99.90
27559;DHT22;15002;52.028;5.670;2024-03-06T15:03:31;14.70;99.90
27559;DHT22;15002;52.028;5.670;2024-03-06T15:05:57;14.70;99.90
27559;DHT22;15002;52.028;5.670;2024-03-06T15:08:22;15.10;99.90
27559;DHT22;15002;52.028;5.670;2024-03-06T15:10:49;15.30;99.90
27559;DHT22;15002;52.028;5.670;2024-03-06T15:13:17;15.20;99.90
27559;DHT22;15002;52.028;5.670;2024-03-06T15:15:44;14.80;99.90
27559;DHT22;15002;52.028;5.670;2024-03-06T15:18:10;14.60;99.90
27559;DHT22;15002;52.028;5.670;2024-03-06T15:20:36;14.90;99.90
27559;DHT22;15002;52.028;5.670;2024-03-06T15:23:02;14.90;99.90
27559;DHT22;15002;52.028;5.670;2024-03-06T15:25:27;14.80;99.90
27559;DHT22;15002;52.028;5.670;2024-03-06T15:27:53;14.50;99.90
27559;DHT22;15002;52.028;5.670;2024-03-06T15:30:19;14.10;99.90
27559;DHT22;15002;52.028;5.670;2024-03-06T15:32:46;14.40;99.90
27559;DHT22;15002;52.028;5.670;2024-03-06T15:35:12;14.30;99.90
27559;DHT22;15002;52.028;5.670;2024-03-06T15:37:38;14.40;99.90
27559;DHT22;15002;52.028;5.670;2024-03-06T15:40:04;14.70;99.90